createdAt,value
2022-09-01T00:00:54.508Z,57.10
2022-09-01T00:03:21.797Z,57.05
2022-09-01T00:05:51.318Z,57.13
2022-09-01T00:08:18.872Z,57.07
2022-09-01T00:10:45.475Z,57.05
2022-09-01T00:13:12.583Z,56.96
2022-09-01T00:15:39.399Z,57.08
2022-09-01T00:18:06.017Z,57.06
2022-09-01T00:20:33.018Z,57.18
2022-09-01T00:23:00.950Z,57.23
2022-09-01T00:25:28.371Z,57.38
2022-09-01T00:27:55.223Z,57.63
2022-09-01T00:30:21.815Z,56.75
2022-09-01T00:32:48.394Z,56.40
2022-09-01T00:35:18.008Z,56.23
2022-09-01T00:37:45.110Z,56.46
2022-09-01T00:40:16.134Z,56.93
2022-09-01T00:42:43.311Z,56.93
2022-09-01T00:45:11.043Z,57.67
2022-09-01T00:47:38.224Z,57.48
2022-09-01T00:50:07.460Z,57.15
2022-09-01T00:52:36.087Z,56.87
2022-09-01T00:55:07.544Z,56.88
2022-09-01T00:57:35.658Z,56.93
2022-09-01T01:00:09.547Z,57.04
2022-09-01T01:02:36.193Z,57.08
2022-09-01T01:05:02.732Z,57.17
2022-09-01T01:07:29.384Z,57.32
2022-09-01T01:09:56.707Z,57.28
2022-09-01T01:12:23.277Z,57.42
2022-09-01T01:14:51.324Z,57.48
2022-09-01T01:17:18.833Z,57.58
2022-09-01T01:19:46.951Z,56.50
2022-09-01T01:22:21.905Z,56.42
2022-09-01T01:24:49.804Z,57.06
2022-09-01T01:27:16.318Z,56.29
2022-09-01T01:29:42.819Z,56.40
2022-09-01T01:32:09.378Z,56.81
2022-09-01T01:34:35.883Z,56.28
2022-09-01T01:37:02.434Z,57.94
2022-09-01T01:39:29.230Z,57.55
2022-09-01T01:41:57.384Z,57.19
2022-09-01T01:44:26.836Z,56.90
2022-09-01T01:46:54.700Z,57.17
2022-09-01T01:49:24.518Z,57.22
2022-09-01T01:51:53.410Z,57.20
2022-09-01T01:54:19.953Z,57.45
2022-09-01T01:56:46.528Z,57.56
2022-09-01T01:59:14.686Z,57.57
2022-09-01T02:01:42.701Z,57.71
2022-09-01T02:04:10.949Z,58.26
2022-09-01T02:06:38.449Z,56.61
2022-09-01T02:09:04.999Z,57.10
2022-09-01T02:11:31.663Z,56.34
2022-09-01T02:13:58.274Z,56.64
2022-09-01T02:16:28.531Z,56.51
2022-09-01T02:18:55.884Z,58.09
2022-09-01T02:21:24.529Z,57.86
2022-09-01T02:23:53.507Z,57.65
2022-09-01T02:26:20.172Z,57.42
2022-09-01T02:28:52.154Z,57.12
2022-09-01T02:31:21.257Z,57.44
2022-09-01T02:33:49.136Z,57.41
2022-09-01T02:36:17.977Z,57.48
2022-09-01T02:38:46.653Z,57.63
2022-09-01T02:41:15.125Z,57.75
2022-09-01T02:43:42.902Z,57.70
2022-09-01T02:46:10.472Z,57.65
2022-09-01T02:48:39.094Z,58.26
2022-09-01T02:51:12.234Z,57.60
2022-09-01T02:53:39.537Z,56.92
2022-09-01T02:56:08.423Z,57.41
2022-09-01T02:58:35.560Z,56.69
2022-09-01T03:01:02.160Z,57.35
2022-09-01T03:03:29.463Z,56.56
2022-09-01T03:05:55.993Z,56.86
2022-09-01T03:08:24.808Z,56.81
2022-09-01T03:10:52.545Z,58.09
2022-09-01T03:13:22.141Z,57.55
2022-09-01T03:15:48.787Z,57.85
2022-09-01T03:18:15.801Z,57.55
2022-09-01T03:20:44.710Z,57.49
2022-09-01T03:23:13.123Z,57.62
2022-09-01T03:25:42.385Z,57.63
2022-09-01T03:28:09.915Z,57.92
2022-09-01T03:30:37.423Z,57.75
2022-09-01T03:33:04.691Z,57.79
2022-09-01T03:35:31.403Z,57.95
2022-09-01T03:37:58.450Z,58.00
2022-09-01T03:40:25.843Z,58.21
2022-09-01T03:42:54.062Z,58.35
2022-09-01T03:45:21.097Z,56.85
2022-09-01T03:47:48.169Z,56.62
2022-09-01T03:50:17.567Z,56.70
2022-09-01T03:52:44.115Z,56.95
2022-09-01T03:55:10.665Z,57.73
2022-09-01T03:57:37.247Z,56.81
2022-09-01T04:00:07.435Z,57.28
2022-09-01T04:02:34.813Z,58.33
2022-09-01T04:05:03.529Z,57.96
2022-09-01T04:07:31.807Z,57.49
2022-09-01T04:09:58.360Z,57.69
2022-09-01T04:12:24.870Z,57.18
2022-09-01T04:14:51.432Z,57.12
2022-09-01T04:17:19.248Z,57.34
2022-09-01T04:19:45.895Z,57.27
2022-09-01T04:22:12.447Z,57.30
2022-09-01T04:24:42.120Z,57.23
2022-09-01T04:27:12.921Z,56.86
2022-09-01T04:29:39.507Z,57.06
2022-09-01T04:32:08.781Z,57.17
2022-09-01T04:34:38.252Z,57.87
2022-09-01T04:37:08.946Z,57.26
2022-09-01T04:39:35.659Z,56.55
2022-09-01T04:42:02.539Z,56.60
2022-09-01T04:44:29.101Z,56.51
2022-09-01T04:46:56.223Z,56.48
2022-09-01T04:49:23.062Z,56.04
2022-09-01T04:51:53.847Z,56.50
2022-09-01T04:54:23.483Z,61.67
2022-09-01T04:56:51.988Z,67.20
2022-09-01T04:59:21.570Z,67.62
2022-09-01T05:01:48.849Z,66.93
2022-09-01T05:04:17.490Z,66.17
2022-09-01T05:06:45.772Z,63.38
2022-09-01T05:09:13.934Z,62.98
2022-09-01T05:11:41.230Z,62.27
2022-09-01T05:14:07.847Z,61.92
2022-09-01T05:16:34.856Z,61.62
2022-09-01T05:19:02.192Z,61.46
2022-09-01T05:21:29.539Z,61.23
2022-09-01T05:23:58.001Z,61.72
2022-09-01T05:26:28.804Z,61.02
2022-09-01T05:28:57.264Z,60.51
2022-09-01T05:31:26.381Z,59.46
2022-09-01T05:33:52.992Z,59.58
2022-09-01T05:36:22.123Z,59.15
2022-09-01T05:38:49.819Z,58.62
2022-09-01T05:41:18.291Z,58.73
2022-09-01T05:43:48.794Z,59.42
2022-09-01T05:46:17.246Z,59.75
2022-09-01T05:48:44.245Z,59.17
2022-09-01T05:51:33.396Z,59.03
2022-09-01T05:53:59.277Z,58.89
2022-09-01T05:56:28.425Z,59.08
2022-09-01T06:01:46.853Z,58.80
2022-09-01T06:04:16.053Z,58.79
2022-09-01T06:07:04.114Z,58.86
2022-09-01T06:09:31.317Z,59.30
2022-09-01T06:11:57.899Z,59.54
2022-09-01T06:14:25.720Z,58.35
2022-09-01T06:16:52.274Z,57.92
2022-09-01T06:19:18.797Z,58.72
2022-09-01T06:21:45.336Z,59.32
2022-09-01T06:24:11.963Z,59.41
2022-09-01T06:26:38.546Z,58.40
2022-09-01T06:29:06.593Z,60.70
2022-09-01T06:31:35.789Z,60.63
2022-09-01T06:34:03.540Z,61.08
2022-09-01T06:36:34.862Z,61.35
2022-09-01T06:39:02.514Z,61.20
2022-09-01T06:41:29.256Z,61.99
2022-09-01T06:43:55.798Z,61.82
2022-09-01T06:46:22.758Z,62.10
2022-09-01T06:48:50.642Z,61.73
2022-09-01T06:51:21.342Z,61.67
2022-09-01T06:53:51.540Z,61.85
2022-09-01T06:56:18.620Z,61.76
2022-09-01T06:58:46.367Z,61.28
2022-09-01T07:01:14.244Z,60.68
2022-09-01T07:03:40.929Z,60.38
2022-09-01T07:06:09.931Z,60.13
2022-09-01T07:14:15.378Z,59.39
2022-09-01T07:16:52.132Z,59.43
2022-09-01T07:19:19.827Z,59.83
2022-09-01T07:24:34.212Z,61.09
2022-09-01T07:27:07.539Z,61.85
2022-09-01T07:29:34.716Z,62.37
2022-09-01T07:34:49.968Z,62.02
2022-09-01T07:38:47.518Z,62.74
2022-09-01T07:45:30.037Z,62.38
2022-09-01T07:47:57.674Z,62.08
2022-09-01T07:50:39.834Z,62.40
2022-09-01T07:53:09.749Z,60.60
2022-09-01T07:55:39.481Z,60.69
2022-09-01T07:58:06.180Z,60.33
2022-09-01T08:00:32.812Z,59.72
2022-09-01T08:02:59.374Z,60.39
2022-09-01T08:05:26.171Z,59.27
2022-09-01T08:07:52.928Z,59.97
2022-09-01T08:10:21.607Z,58.88
2022-09-01T08:12:56.387Z,60.86
2022-09-01T08:16:06.325Z,59.98
2022-09-01T08:18:14.366Z,59.46
2022-09-01T08:20:43.351Z,58.88
2022-09-01T08:23:10.097Z,58.90
2022-09-01T08:25:38.996Z,59.06
2022-09-01T08:28:06.110Z,58.37
2022-09-01T08:30:32.801Z,58.33
2022-09-01T08:33:00.477Z,58.23
2022-09-01T08:35:38.513Z,58.32
2022-09-01T08:38:05.359Z,59.11
2022-09-01T08:40:32.235Z,60.68
2022-09-01T08:43:15.245Z,60.41
2022-09-01T08:45:48.637Z,60.81
2022-09-01T08:51:17.188Z,59.75
2022-09-01T08:53:56.815Z,60.49
2022-09-01T08:56:23.655Z,61.07
2022-09-01T08:58:52.085Z,61.14
2022-09-01T09:01:25.940Z,60.91
2022-09-01T09:04:03.470Z,62.00
2022-09-01T09:06:37.149Z,61.84
2022-09-01T09:09:06.005Z,61.24
2022-09-01T09:11:46.608Z,60.65
2022-09-01T09:14:32.479Z,60.34
2022-09-01T09:16:59.771Z,60.35
2022-09-01T09:19:30.009Z,60.28
2022-09-01T09:21:58.696Z,60.51
2022-09-01T09:24:36.963Z,59.82
2022-09-01T09:27:05.446Z,59.24
2022-09-01T09:29:35.147Z,59.38
2022-09-01T09:32:05.564Z,59.71
2022-09-01T09:34:36.318Z,59.15
2022-09-01T09:37:26.522Z,58.78
2022-09-01T09:40:10.047Z,58.71
2022-09-01T09:42:39.030Z,58.72
2022-09-01T09:45:21.218Z,58.49
2022-09-01T09:47:48.493Z,58.32
2022-09-01T09:50:20.801Z,58.29
2022-09-01T09:52:48.198Z,57.79
2022-09-01T09:55:22.902Z,57.85
2022-09-01T09:57:50.763Z,57.79
2022-09-01T10:00:24.030Z,57.67
2022-09-01T10:02:55.826Z,57.77
2022-09-01T10:05:34.427Z,58.35
2022-09-01T10:08:01.710Z,59.01
2022-09-01T10:10:36.526Z,59.22
2022-09-01T10:13:03.570Z,59.04
2022-09-01T10:15:33.321Z,58.77
2022-09-01T10:18:20.031Z,58.70
2022-09-01T10:20:56.207Z,58.45
2022-09-01T10:23:22.777Z,58.59
2022-09-01T10:25:51.647Z,58.45
2022-09-01T10:28:23.190Z,58.86
2022-09-01T10:30:53.408Z,58.90
2022-09-01T10:33:22.279Z,58.60
2022-09-01T10:35:51.596Z,57.50
2022-09-01T10:38:22.519Z,57.22
2022-09-01T10:40:51.199Z,57.86
2022-09-01T10:43:36.336Z,58.17
2022-09-01T10:46:42.327Z,58.08
2022-09-01T10:49:56.905Z,57.72
2022-09-01T10:52:53.738Z,57.60
2022-09-01T10:55:24.984Z,57.42
2022-09-01T10:58:09.311Z,57.25
2022-09-01T11:03:52.106Z,57.17
2022-09-01T11:07:11.730Z,57.14
2022-09-01T11:09:34.821Z,56.77
2022-09-01T11:12:15.124Z,56.83
2022-09-01T11:14:48.817Z,56.71
2022-09-01T11:17:19.286Z,57.10
2022-09-01T11:19:55.720Z,57.13
2022-09-01T11:22:29.102Z,57.51
2022-09-01T11:25:18.646Z,57.91
2022-09-01T11:28:00.786Z,57.61
2022-09-01T11:30:37.466Z,57.32
2022-09-01T11:33:17.803Z,57.90
2022-09-01T11:35:46.230Z,58.18
2022-09-01T11:38:15.080Z,58.38
2022-09-01T11:40:43.120Z,58.55
2022-09-01T11:43:13.773Z,58.79
2022-09-01T11:45:54.631Z,57.88
2022-09-01T11:48:21.431Z,57.08
2022-09-01T11:50:58.109Z,57.43
2022-09-01T11:53:26.574Z,57.43
2022-09-01T11:55:56.313Z,57.33
2022-09-01T11:58:32.862Z,57.22
2022-09-01T12:01:13.517Z,57.19
2022-09-01T12:03:40.256Z,57.31
2022-09-01T12:06:10.848Z,57.39
2022-09-01T12:08:39.550Z,57.43
2022-09-01T12:11:10.909Z,57.41
2022-09-01T12:13:38.922Z,57.45
2022-09-01T12:16:17.842Z,57.18
2022-09-01T12:18:51.837Z,57.20
2022-09-01T12:21:22.396Z,57.21
2022-09-01T12:23:49.047Z,57.24
2022-09-01T12:26:23.443Z,57.01
2022-09-01T12:28:50.276Z,56.85
2022-09-01T12:31:19.565Z,56.76
2022-09-01T12:33:47.833Z,56.70
2022-09-01T12:36:24.133Z,56.83
2022-09-01T12:38:52.067Z,56.61
2022-09-01T12:41:34.090Z,56.53
2022-09-01T12:44:30.461Z,56.49
2022-09-01T12:46:59.781Z,56.24
2022-09-01T12:49:34.165Z,56.20
2022-09-01T12:52:21.265Z,56.29
2022-09-01T12:54:50.482Z,56.21
2022-09-01T12:57:27.741Z,55.98
2022-09-01T13:00:14.668Z,56.13
2022-09-01T13:02:43.683Z,55.61
2022-09-01T13:05:31.838Z,56.07
2022-09-01T13:08:01.225Z,56.24
2022-09-01T13:10:32.672Z,56.30
2022-09-01T13:13:00.581Z,56.34
2022-09-01T13:15:27.639Z,56.32
2022-09-01T13:17:54.416Z,56.19
2022-09-01T13:20:21.129Z,56.14
2022-09-01T13:22:47.863Z,56.33
2022-09-01T13:25:17.576Z,56.70
2022-09-01T13:27:45.517Z,56.44
2022-09-01T13:30:15.193Z,56.28
2022-09-01T13:33:18.904Z,56.46
2022-09-01T13:35:28.626Z,56.95
2022-09-01T13:37:55.940Z,57.53
2022-09-01T13:40:23.418Z,57.77
2022-09-01T13:42:51.316Z,57.61
2022-09-01T13:45:21.955Z,57.81
2022-09-01T13:53:24.353Z,57.11
2022-09-01T13:55:50.912Z,57.83
2022-09-01T13:58:17.793Z,57.82
2022-09-01T14:00:46.837Z,57.87
2022-09-01T14:03:16.986Z,58.07
2022-09-01T14:05:46.799Z,57.23
2022-09-01T14:08:17.734Z,56.87
2022-09-01T14:10:47.203Z,56.90
2022-09-01T14:13:13.777Z,57.36
2022-09-01T14:15:40.323Z,57.52
2022-09-01T14:18:08.715Z,57.48
2022-09-01T14:20:37.941Z,57.39
2022-09-01T14:23:05.967Z,57.28
2022-09-01T14:25:32.774Z,57.29
2022-09-01T14:27:59.715Z,57.20
2022-09-01T14:30:31.445Z,57.09
2022-09-01T14:32:58.903Z,57.15
2022-09-01T14:35:27.596Z,56.96
2022-09-01T14:37:55.146Z,56.67
2022-09-01T14:40:23.299Z,56.66
2022-09-01T14:42:52.092Z,56.61
2022-09-01T14:45:19.954Z,56.34
2022-09-01T14:47:48.171Z,56.24
2022-09-01T14:50:17.261Z,55.98
2022-09-01T14:52:48.168Z,55.90
2022-09-01T14:55:15.316Z,55.47
2022-09-01T14:57:42.160Z,55.58
2022-09-01T15:00:11.073Z,55.54
2022-09-01T15:02:38.204Z,55.24
2022-09-01T15:05:05.669Z,55.31
2022-09-01T15:07:32.435Z,55.21
2022-09-01T15:10:00.339Z,55.26
2022-09-01T15:12:27.317Z,55.07
2022-09-01T15:14:53.970Z,55.13
2022-09-01T15:17:20.510Z,55.15
2022-09-01T15:19:47.041Z,55.03
2022-09-01T15:22:13.608Z,54.95
2022-09-01T15:24:40.318Z,55.06
2022-09-01T15:27:08.542Z,56.73
2022-09-01T15:29:35.161Z,56.38
2022-09-01T15:32:01.958Z,55.53
2022-09-01T15:34:28.704Z,55.49
2022-09-01T15:36:55.266Z,55.74
2022-09-01T15:39:22.011Z,55.97
2022-09-01T15:41:48.745Z,55.81
2022-09-01T15:44:16.574Z,55.85
2022-09-01T15:46:43.263Z,55.78
2022-09-01T15:49:13.065Z,55.82
2022-09-01T15:51:40.882Z,55.95
2022-09-01T15:54:10.247Z,55.74
2022-09-01T15:56:37.512Z,55.81
2022-09-01T15:59:06.923Z,55.69
2022-09-01T16:01:40.851Z,55.80
2022-09-01T16:04:12.604Z,56.10
2022-09-01T16:06:41.409Z,56.71
2022-09-01T16:09:09.097Z,56.05
2022-09-01T16:11:35.868Z,55.77
2022-09-01T16:14:03.800Z,55.94
2022-09-01T16:16:41.294Z,56.22
2022-09-01T16:19:21.519Z,56.27
2022-09-01T16:21:54.169Z,57.77
2022-09-01T16:24:20.832Z,57.46
2022-09-01T16:26:48.817Z,57.86
2022-09-01T16:29:20.702Z,57.00
2022-09-01T16:31:55.728Z,56.25
2022-09-01T16:34:26.239Z,56.74
2022-09-01T16:37:04.261Z,56.70
2022-09-01T16:39:38.012Z,56.84
2022-09-01T16:42:09.732Z,56.87
2022-09-01T16:44:44.862Z,56.83
2022-09-01T16:47:30.915Z,56.74
2022-09-01T16:50:06.649Z,56.57
2022-09-01T16:52:41.037Z,56.63
2022-09-01T16:55:20.454Z,56.40
2022-09-01T16:57:59.278Z,56.41
2022-09-01T17:00:36.427Z,56.95
2022-09-01T17:03:17.119Z,56.74
2022-09-01T17:05:53.417Z,56.71
2022-09-01T17:08:23.164Z,57.33
2022-09-01T17:10:54.693Z,57.14
2022-09-01T17:13:28.642Z,56.95
2022-09-01T17:16:00.766Z,57.11
2022-09-01T17:18:36.743Z,56.59
2022-09-01T17:21:11.378Z,57.04
2022-09-01T17:23:44.631Z,56.84
2022-09-01T17:26:16.924Z,57.73
2022-09-01T17:28:49.101Z,57.13
2022-09-01T17:31:25.877Z,56.27
2022-09-01T17:34:08.621Z,56.26
2022-09-01T17:36:47.084Z,56.46
2022-09-01T17:39:27.091Z,56.50
2022-09-01T17:41:56.860Z,56.18
2022-09-01T17:44:31.096Z,56.44
2022-09-01T17:47:03.618Z,56.24
2022-09-01T17:49:38.234Z,56.23
2022-09-01T17:52:14.294Z,57.24
2022-09-01T17:54:51.457Z,56.85
2022-09-01T17:57:22.497Z,56.88
2022-09-01T17:59:54.937Z,56.69
2022-09-01T18:02:37.445Z,56.64
2022-09-01T18:05:10.902Z,56.66
2022-09-01T18:07:52.155Z,56.66
2022-09-01T18:10:30.467Z,57.38
2022-09-01T18:13:02.066Z,57.82
2022-09-01T18:15:45.121Z,57.85
2022-09-01T18:18:28.041Z,57.90
2022-09-01T18:21:01.455Z,57.49
2022-09-01T18:23:31.063Z,56.43
2022-09-01T18:26:05.004Z,55.84
2022-09-01T18:28:31.556Z,56.39
2022-09-01T18:31:04.251Z,56.52
2022-09-01T18:33:38.718Z,56.51
2022-09-01T18:36:20.888Z,56.46
2022-09-01T18:38:55.020Z,56.38
2022-09-01T18:41:34.006Z,56.47
2022-09-01T18:44:13.026Z,58.44
2022-09-01T18:46:49.555Z,58.80
2022-09-01T18:49:24.688Z,58.52
2022-09-01T18:52:06.780Z,58.54
2022-09-01T18:54:38.277Z,58.62
2022-09-01T18:57:06.194Z,58.67
2022-09-01T18:59:59.154Z,58.79
2022-09-01T19:02:41.166Z,58.43
2022-09-01T19:05:19.358Z,58.98
2022-09-01T19:07:55.831Z,59.34
2022-09-01T19:10:26.765Z,59.34
2022-09-01T19:13:01.180Z,59.94
2022-09-01T19:15:33.986Z,57.31
2022-09-01T19:18:11.507Z,57.04
2022-09-01T19:20:44.850Z,57.12
2022-09-01T19:23:18.978Z,57.17
2022-09-01T19:25:45.862Z,57.15
2022-09-01T19:28:18.354Z,57.29
2022-09-01T19:30:50.191Z,56.90
2022-09-01T19:33:22.361Z,57.30
2022-09-01T19:35:50.846Z,58.86
2022-09-01T19:38:22.247Z,59.34
2022-09-01T19:40:52.682Z,59.26
2022-09-01T19:43:19.879Z,59.53
2022-09-01T19:45:55.590Z,59.51
2022-09-01T19:48:28.773Z,59.67
2022-09-01T19:51:00.854Z,59.75
2022-09-01T19:53:40.124Z,59.84
2022-09-01T19:56:10.691Z,59.92
2022-09-01T19:58:48.549Z,60.11
2022-09-01T20:01:21.263Z,59.99
2022-09-01T20:03:52.406Z,59.24
2022-09-01T20:06:30.577Z,58.25
2022-09-01T20:09:02.745Z,58.19
2022-09-01T20:11:39.694Z,58.25
2022-09-01T20:14:17.912Z,57.86
2022-09-01T20:16:46.579Z,57.95
2022-09-01T20:19:16.822Z,57.77
2022-09-01T20:21:46.043Z,57.49
2022-09-01T20:24:25.545Z,57.52
2022-09-01T20:27:04.298Z,57.27
2022-09-01T20:29:40.757Z,58.98
2022-09-01T20:32:09.895Z,59.50
2022-09-01T20:34:42.178Z,59.17
2022-09-01T20:37:13.830Z,59.63
2022-09-01T20:39:48.304Z,59.55
2022-09-01T20:42:19.850Z,59.60
2022-09-01T20:44:53.296Z,60.06
2022-09-01T20:47:21.875Z,60.29
2022-09-01T20:49:48.806Z,60.09
2022-09-01T20:52:23.922Z,60.52
2022-09-01T20:54:59.146Z,60.36
2022-09-01T20:57:44.653Z,60.90
2022-09-01T21:00:18.329Z,61.21
2022-09-01T21:02:56.182Z,60.46
2022-09-01T21:05:36.275Z,59.14
2022-09-01T21:08:19.359Z,59.31
2022-09-01T21:10:56.761Z,59.33
2022-09-01T21:13:39.511Z,58.66
2022-09-01T21:16:13.560Z,58.38
2022-09-01T21:18:52.724Z,57.92
2022-09-01T21:21:32.186Z,58.11
2022-09-01T21:23:58.867Z,57.86
2022-09-01T21:26:27.679Z,59.28
2022-09-01T21:28:57.912Z,60.09
2022-09-01T21:31:24.564Z,60.29
2022-09-01T21:33:51.784Z,60.61
2022-09-01T21:36:18.537Z,60.62
2022-09-01T21:38:45.080Z,60.62
2022-09-01T21:41:13.258Z,60.90
2022-09-01T21:43:45.312Z,60.74
2022-09-01T21:46:12.235Z,61.02
2022-09-01T21:48:39.112Z,61.01
2022-09-01T21:51:05.972Z,61.28
2022-09-01T21:53:32.835Z,61.47
2022-09-01T21:55:59.637Z,62.02
2022-09-01T21:58:26.161Z,60.21
2022-09-01T22:00:54.261Z,59.30
2022-09-01T22:03:21.002Z,59.03
2022-09-01T22:05:47.758Z,58.88
2022-09-01T22:08:14.836Z,58.83
2022-09-01T22:10:43.208Z,58.85
2022-09-01T22:13:10.806Z,58.24
2022-09-01T22:15:41.850Z,58.00
2022-09-01T22:18:10.501Z,58.00
2022-09-01T22:20:37.763Z,60.71
2022-09-01T22:23:04.500Z,60.19
2022-09-01T22:25:32.543Z,60.13
2022-09-01T22:27:59.115Z,60.34
2022-09-01T22:30:25.818Z,60.21
2022-09-01T22:32:52.681Z,60.51
2022-09-01T22:35:20.954Z,60.39
2022-09-01T22:37:48.404Z,60.50
2022-09-01T22:40:15.503Z,60.43
2022-09-01T22:42:42.545Z,60.20
2022-09-01T22:45:10.638Z,60.35
2022-09-01T22:47:38.589Z,60.86
2022-09-01T22:50:07.932Z,60.40
2022-09-01T22:52:37.010Z,59.31
2022-09-01T22:55:04.773Z,58.92
2022-09-01T22:57:31.873Z,58.68
2022-09-01T22:59:58.489Z,58.42
2022-09-01T23:02:25.072Z,58.21
2022-09-01T23:04:51.801Z,58.42
2022-09-01T23:07:18.379Z,57.96
2022-09-01T23:09:46.229Z,60.11
2022-09-01T23:12:13.663Z,59.92
2022-09-01T23:14:41.453Z,60.30
2022-09-01T23:17:07.994Z,60.15
2022-09-01T23:19:34.684Z,60.25
2022-09-01T23:22:01.710Z,60.57
2022-09-01T23:24:28.351Z,60.76
2022-09-01T23:26:56.382Z,60.48
2022-09-01T23:29:22.977Z,60.42
2022-09-01T23:31:49.523Z,60.64
2022-09-01T23:34:16.086Z,60.03
2022-09-01T23:36:43.245Z,60.62
2022-09-01T23:39:10.036Z,59.83
2022-09-01T23:41:37.861Z,58.25
2022-09-01T23:44:09.031Z,58.48
2022-09-01T23:46:38.213Z,58.20
2022-09-01T23:49:05.616Z,58.20
2022-09-01T23:51:32.547Z,57.86
2022-09-01T23:53:59.244Z,57.72
2022-09-01T23:56:27.199Z,57.97
2022-09-01T23:58:53.851Z,57.60
